sensor_id;sensor_type;location;lat;lon;timestamp;P1;durP1;ratioP1;P2;durP2;ratioP2
47021;SDS011;32779;52.264;6.154;2023-09-08T00:02:26;11.07;;;4.75;;
47021;SDS011;32779;52.264;6.154;2023-09-08T00:04:53;7.15;;;4.30;;
47021;SDS011;32779;52.264;6.154;2023-09-08T00:07:19;6.65;;;4.55;;
47021;SDS011;32779;52.264;6.154;2023-09-08T00:09:45;8.82;;;5.03;;
47021;SDS011;32779;52.264;6.154;2023-09-08T00:12:10;5.55;;;4.82;;
47021;SDS011;32779;52.264;6.154;2023-09-08T00:14:36;7.85;;;4.80;;
47021;SDS011;32779;52.264;6.154;2023-09-08T00:17:01;7.78;;;4.60;;
47021;SDS011;32779;52.264;6.154;2023-09-08T00:19:27;6.40;;;4.75;;
47021;SDS011;32779;52.264;6.154;2023-09-08T00:21:52;5.93;;;4.78;;
47021;SDS011;32779;52.264;6.154;2023-09-08T00:24:18;8.35;;;5.22;;
47021;SDS011;32779;52.264;6.154;2023-09-08T00:26:44;7.75;;;5.03;;
47021;SDS011;32779;52.264;6.154;2023-09-08T00:29:10;9.10;;;4.90;;
47021;SDS011;32779;52.264;6.154;2023-09-08T00:31:36;10.50;;;5.20;;
47021;SDS011;32779;52.264;6.154;2023-09-08T00:34:01;9.80;;;5.05;;
47021;SDS011;32779;52.264;6.154;2023-09-08T00:36:27;7.25;;;5.07;;
47021;SDS011;32779;52.264;6.154;2023-09-08T00:38:53;12.80;;;5.47;;
47021;SDS011;32779;52.264;6.154;2023-09-08T00:41:18;6.20;;;4.82;;
47021;SDS011;32779;52.264;6.154;2023-09-08T00:43:44;6.95;;;5.10;;
47021;SDS011;32779;52.264;6.154;2023-09-08T00:46:10;6.50;;;5.32;;
47021;SDS011;32779;52.264;6.154;2023-09-08T00:48:36;8.25;;;5.40;;
47021;SDS011;32779;52.264;6.154;2023-09-08T00:51:03;8.57;;;5.65;;
47021;SDS011;32779;52.264;6.154;2023-09-08T00:53:30;8.82;;;5.65;;
47021;SDS011;32779;52.264;6.154;2023-09-08T00:55:56;5.50;;;5.00;;
47021;SDS011;32779;52.264;6.154;2023-09-08T00:58:23;6.95;;;5.53;;
47021;SDS011;32779;52.264;6.154;2023-09-08T01:00:49;7.40;;;5.20;;
47021;SDS011;32779;52.264;6.154;2023-09-08T01:03:15;7.68;;;5.30;;
47021;SDS011;32779;52.264;6.154;2023-09-08T01:05:40;9.48;;;6.45;;
47021;SDS011;32779;52.264;6.154;2023-09-08T01:08:06;6.70;;;5.78;;
47021;SDS011;32779;52.264;6.154;2023-09-08T01:10:33;8.38;;;5.25;;
47021;SDS011;32779;52.264;6.154;2023-09-08T01:12:59;7.25;;;5.53;;
47021;SDS011;32779;52.264;6.154;2023-09-08T01:15:25;11.38;;;6.30;;
47021;SDS011;32779;52.264;6.154;2023-09-08T01:17:51;6.65;;;5.03;;
47021;SDS011;32779;52.264;6.154;2023-09-08T01:20:22;6.28;;;5.43;;
47021;SDS011;32779;52.264;6.154;2023-09-08T01:26:03;5.93;;;5.38;;
47021;SDS011;32779;52.264;6.154;2023-09-08T01:28:32;7.60;;;5.90;;
47021;SDS011;32779;52.264;6.154;2023-09-08T01:30:59;7.20;;;6.28;;
47021;SDS011;32779;52.264;6.154;2023-09-08T01:33:25;6.93;;;5.72;;
47021;SDS011;32779;52.264;6.154;2023-09-08T01:35:51;7.80;;;5.47;;
47021;SDS011;32779;52.264;6.154;2023-09-08T01:38:17;8.07;;;6.22;;
47021;SDS011;32779;52.264;6.154;2023-09-08T01:43:09;9.32;;;6.45;;
47021;SDS011;32779;52.264;6.154;2023-09-08T01:45:35;8.73;;;6.18;;
47021;SDS011;32779;52.264;6.154;2023-09-08T01:48:00;11.15;;;6.95;;
47021;SDS011;32779;52.264;6.154;2023-09-08T01:50:26;6.88;;;6.05;;
47021;SDS011;32779;52.264;6.154;2023-09-08T01:52:52;9.75;;;6.70;;
47021;SDS011;32779;52.264;6.154;2023-09-08T01:55:17;9.20;;;6.03;;
47021;SDS011;32779;52.264;6.154;2023-09-08T01:57:43;11.27;;;7.00;;
47021;SDS011;32779;52.264;6.154;2023-09-08T02:00:10;7.10;;;6.07;;
47021;SDS011;32779;52.264;6.154;2023-09-08T02:02:36;9.25;;;7.07;;
47021;SDS011;32779;52.264;6.154;2023-09-08T02:07:28;10.38;;;6.65;;
47021;SDS011;32779;52.264;6.154;2023-09-08T02:09:54;7.80;;;6.25;;
47021;SDS011;32779;52.264;6.154;2023-09-08T02:12:20;9.02;;;6.28;;
47021;SDS011;32779;52.264;6.154;2023-09-08T02:14:46;10.95;;;6.90;;
47021;SDS011;32779;52.264;6.154;2023-09-08T02:19:37;8.80;;;6.45;;
47021;SDS011;32779;52.264;6.154;2023-09-08T02:22:03;7.72;;;6.68;;
47021;SDS011;32779;52.264;6.154;2023-09-08T02:26:54;7.15;;;6.30;;
47021;SDS011;32779;52.264;6.154;2023-09-08T02:29:20;8.07;;;6.93;;
47021;SDS011;32779;52.264;6.154;2023-09-08T02:31:45;7.80;;;7.07;;
47021;SDS011;32779;52.264;6.154;2023-09-08T02:34:11;10.18;;;7.07;;
47021;SDS011;32779;52.264;6.154;2023-09-08T02:36:37;10.73;;;6.93;;
47021;SDS011;32779;52.264;6.154;2023-09-08T02:41:29;11.68;;;7.55;;
47021;SDS011;32779;52.264;6.154;2023-09-08T02:43:55;12.88;;;7.03;;
47021;SDS011;32779;52.264;6.154;2023-09-08T02:46:20;8.38;;;6.10;;
47021;SDS011;32779;52.264;6.154;2023-09-08T02:48:46;7.22;;;6.32;;
47021;SDS011;32779;52.264;6.154;2023-09-08T02:53:37;8.95;;;6.30;;
47021;SDS011;32779;52.264;6.154;2023-09-08T02:56:03;8.40;;;6.55;;
47021;SDS011;32779;52.264;6.154;2023-09-08T02:58:30;7.90;;;6.55;;
47021;SDS011;32779;52.264;6.154;2023-09-08T03:01:08;6.88;;;6.03;;
47021;SDS011;32779;52.264;6.154;2023-09-08T03:03:39;8.63;;;6.80;;
47021;SDS011;32779;52.264;6.154;2023-09-08T03:06:08;9.27;;;6.55;;
47021;SDS011;32779;52.264;6.154;2023-09-08T03:08:34;7.90;;;6.80;;
47021;SDS011;32779;52.264;6.154;2023-09-08T03:11:02;11.25;;;7.13;;
47021;SDS011;32779;52.264;6.154;2023-09-08T03:13:28;12.60;;;7.38;;
47021;SDS011;32779;52.264;6.154;2023-09-08T03:18:20;8.88;;;7.35;;
47021;SDS011;32779;52.264;6.154;2023-09-08T03:23:14;12.45;;;7.05;;
47021;SDS011;32779;52.264;6.154;2023-09-08T03:28:06;11.15;;;7.30;;
47021;SDS011;32779;52.264;6.154;2023-09-08T03:32:57;10.05;;;7.75;;
47021;SDS011;32779;52.264;6.154;2023-09-08T03:37:48;9.82;;;7.97;;
47021;SDS011;32779;52.264;6.154;2023-09-08T03:40:14;10.68;;;8.07;;
47021;SDS011;32779;52.264;6.154;2023-09-08T03:45:07;10.20;;;8.85;;
47021;SDS011;32779;52.264;6.154;2023-09-08T03:47:33;11.00;;;8.07;;
47021;SDS011;32779;52.264;6.154;2023-09-08T03:52:24;10.80;;;9.70;;
47021;SDS011;32779;52.264;6.154;2023-09-08T03:54:50;9.00;;;8.05;;
47021;SDS011;32779;52.264;6.154;2023-09-08T03:59:41;9.73;;;8.73;;
47021;SDS011;32779;52.264;6.154;2023-09-08T04:04:32;10.48;;;8.68;;
47021;SDS011;32779;52.264;6.154;2023-09-08T04:09:23;15.50;;;9.88;;
47021;SDS011;32779;52.264;6.154;2023-09-08T04:14:14;10.77;;;9.55;;
47021;SDS011;32779;52.264;6.154;2023-09-08T04:16:40;10.60;;;9.15;;
47021;SDS011;32779;52.264;6.154;2023-09-08T04:21:31;14.32;;;9.82;;
47021;SDS011;32779;52.264;6.154;2023-09-08T04:26:22;10.95;;;9.85;;
47021;SDS011;32779;52.264;6.154;2023-09-08T04:31:13;10.77;;;9.68;;
47021;SDS011;32779;52.264;6.154;2023-09-08T04:33:39;14.68;;;9.82;;
47021;SDS011;32779;52.264;6.154;2023-09-08T04:38:30;12.00;;;9.93;;
47021;SDS011;32779;52.264;6.154;2023-09-08T04:40:56;14.27;;;9.98;;
47021;SDS011;32779;52.264;6.154;2023-09-08T04:45:47;16.13;;;10.30;;
47021;SDS011;32779;52.264;6.154;2023-09-08T04:50:38;11.07;;;9.98;;
47021;SDS011;32779;52.264;6.154;2023-09-08T04:53:04;13.20;;;10.43;;
47021;SDS011;32779;52.264;6.154;2023-09-08T04:57:56;13.43;;;10.00;;
47021;SDS011;32779;52.264;6.154;2023-09-08T05:02:47;13.65;;;10.95;;
47021;SDS011;32779;52.264;6.154;2023-09-08T05:07:38;11.65;;;10.35;;
47021;SDS011;32779;52.264;6.154;2023-09-08T05:12:29;15.68;;;10.57;;
47021;SDS011;32779;52.264;6.154;2023-09-08T05:14:55;13.82;;;11.45;;
47021;SDS011;32779;52.264;6.154;2023-09-08T05:17:25;13.40;;;10.95;;
47021;SDS011;32779;52.264;6.154;2023-09-08T05:22:16;20.65;;;11.85;;
47021;SDS011;32779;52.264;6.154;2023-09-08T05:24:42;14.23;;;11.10;;
47021;SDS011;32779;52.264;6.154;2023-09-08T05:29:33;11.60;;;10.40;;
47021;SDS011;32779;52.264;6.154;2023-09-08T05:34:24;13.38;;;11.27;;
47021;SDS011;32779;52.264;6.154;2023-09-08T05:39:15;19.73;;;11.23;;
47021;SDS011;32779;52.264;6.154;2023-09-08T05:41:43;16.30;;;11.10;;
47021;SDS011;32779;52.264;6.154;2023-09-08T05:46:35;16.90;;;11.60;;
47021;SDS011;32779;52.264;6.154;2023-09-08T05:49:01;14.73;;;11.00;;
47021;SDS011;32779;52.264;6.154;2023-09-08T05:53:52;14.60;;;12.50;;
47021;SDS011;32779;52.264;6.154;2023-09-08T05:58:44;14.60;;;11.13;;
47021;SDS011;32779;52.264;6.154;2023-09-08T06:03:35;14.70;;;10.63;;
47021;SDS011;32779;52.264;6.154;2023-09-08T06:06:09;14.73;;;10.80;;
47021;SDS011;32779;52.264;6.154;2023-09-08T06:11:00;16.35;;;10.23;;
47021;SDS011;32779;52.264;6.154;2023-09-08T06:15:51;12.07;;;10.10;;
47021;SDS011;32779;52.264;6.154;2023-09-08T06:18:17;16.80;;;9.93;;
47021;SDS011;32779;52.264;6.154;2023-09-08T06:23:11;14.43;;;9.25;;
47021;SDS011;32779;52.264;6.154;2023-09-08T06:28:02;13.15;;;9.82;;
47021;SDS011;32779;52.264;6.154;2023-09-08T06:30:28;14.40;;;9.15;;
47021;SDS011;32779;52.264;6.154;2023-09-08T06:32:54;14.02;;;9.77;;
47021;SDS011;32779;52.264;6.154;2023-09-08T06:35:19;14.63;;;9.65;;
47021;SDS011;32779;52.264;6.154;2023-09-08T06:37:45;11.75;;;9.27;;
47021;SDS011;32779;52.264;6.154;2023-09-08T06:40:11;13.35;;;9.57;;
47021;SDS011;32779;52.264;6.154;2023-09-08T06:42:36;10.25;;;8.98;;
47021;SDS011;32779;52.264;6.154;2023-09-08T06:45:02;11.40;;;8.60;;
47021;SDS011;32779;52.264;6.154;2023-09-08T06:47:28;14.57;;;8.65;;
47021;SDS011;32779;52.264;6.154;2023-09-08T06:49:53;10.57;;;7.53;;
47021;SDS011;32779;52.264;6.154;2023-09-08T06:52:19;12.75;;;8.70;;
47021;SDS011;32779;52.264;6.154;2023-09-08T06:54:45;10.50;;;7.82;;
47021;SDS011;32779;52.264;6.154;2023-09-08T06:57:11;9.98;;;7.55;;
47021;SDS011;32779;52.264;6.154;2023-09-08T06:59:37;12.57;;;7.80;;
47021;SDS011;32779;52.264;6.154;2023-09-08T07:02:03;16.35;;;8.35;;
47021;SDS011;32779;52.264;6.154;2023-09-08T07:04:29;12.23;;;7.22;;
47021;SDS011;32779;52.264;6.154;2023-09-08T07:06:55;10.70;;;7.05;;
47021;SDS011;32779;52.264;6.154;2023-09-08T07:09:21;14.05;;;6.93;;
47021;SDS011;32779;52.264;6.154;2023-09-08T07:11:46;8.55;;;6.22;;
47021;SDS011;32779;52.264;6.154;2023-09-08T07:14:12;14.25;;;6.45;;
47021;SDS011;32779;52.264;6.154;2023-09-08T07:16:38;8.65;;;6.18;;
47021;SDS011;32779;52.264;6.154;2023-09-08T07:19:03;9.35;;;6.72;;
47021;SDS011;32779;52.264;6.154;2023-09-08T07:21:29;7.57;;;5.50;;
47021;SDS011;32779;52.264;6.154;2023-09-08T07:23:55;12.77;;;5.75;;
47021;SDS011;32779;52.264;6.154;2023-09-08T07:26:21;8.75;;;6.20;;
47021;SDS011;32779;52.264;6.154;2023-09-08T07:28:46;9.88;;;5.90;;
47021;SDS011;32779;52.264;6.154;2023-09-08T07:31:13;7.70;;;5.85;;
47021;SDS011;32779;52.264;6.154;2023-09-08T07:33:39;9.23;;;5.55;;
47021;SDS011;32779;52.264;6.154;2023-09-08T07:36:05;7.82;;;5.95;;
47021;SDS011;32779;52.264;6.154;2023-09-08T07:38:32;7.50;;;5.55;;
47021;SDS011;32779;52.264;6.154;2023-09-08T07:40:58;8.02;;;6.10;;
47021;SDS011;32779;52.264;6.154;2023-09-08T07:43:25;11.50;;;5.60;;
47021;SDS011;32779;52.264;6.154;2023-09-08T07:45:51;14.00;;;6.07;;
47021;SDS011;32779;52.264;6.154;2023-09-08T07:48:17;8.00;;;5.65;;
47021;SDS011;32779;52.264;6.154;2023-09-08T07:50:43;7.07;;;5.88;;
47021;SDS011;32779;52.264;6.154;2023-09-08T07:53:08;11.70;;;5.78;;
47021;SDS011;32779;52.264;6.154;2023-09-08T07:55:34;5.78;;;5.18;;
47021;SDS011;32779;52.264;6.154;2023-09-08T07:58:00;9.73;;;5.30;;
47021;SDS011;32779;52.264;6.154;2023-09-08T08:00:27;10.88;;;5.95;;
47021;SDS011;32779;52.264;6.154;2023-09-08T08:02:54;13.15;;;6.07;;
47021;SDS011;32779;52.264;6.154;2023-09-08T08:05:21;16.23;;;5.90;;
47021;SDS011;32779;52.264;6.154;2023-09-08T08:07:47;10.48;;;5.65;;
47021;SDS011;32779;52.264;6.154;2023-09-08T08:10:13;9.00;;;5.20;;
47021;SDS011;32779;52.264;6.154;2023-09-08T08:12:39;5.68;;;4.75;;
47021;SDS011;32779;52.264;6.154;2023-09-08T08:15:06;7.20;;;5.10;;
47021;SDS011;32779;52.264;6.154;2023-09-08T08:17:34;6.68;;;4.93;;
47021;SDS011;32779;52.264;6.154;2023-09-08T08:20:00;7.53;;;5.35;;
47021;SDS011;32779;52.264;6.154;2023-09-08T08:22:35;6.47;;;4.75;;
47021;SDS011;32779;52.264;6.154;2023-09-08T08:25:02;8.10;;;5.20;;
47021;SDS011;32779;52.264;6.154;2023-09-08T08:27:28;8.93;;;5.65;;
47021;SDS011;32779;52.264;6.154;2023-09-08T08:29:55;7.95;;;5.82;;
47021;SDS011;32779;52.264;6.154;2023-09-08T08:32:24;7.00;;;5.70;;
47021;SDS011;32779;52.264;6.154;2023-09-08T08:34:50;9.27;;;5.20;;
47021;SDS011;32779;52.264;6.154;2023-09-08T08:37:16;11.15;;;5.32;;
47021;SDS011;32779;52.264;6.154;2023-09-08T08:39:42;12.07;;;4.97;;
47021;SDS011;32779;52.264;6.154;2023-09-08T08:42:09;6.97;;;5.57;;
47021;SDS011;32779;52.264;6.154;2023-09-08T08:44:39;9.23;;;5.40;;
47021;SDS011;32779;52.264;6.154;2023-09-08T08:47:09;10.15;;;5.30;;
47021;SDS011;32779;52.264;6.154;2023-09-08T08:49:36;11.05;;;5.22;;
47021;SDS011;32779;52.264;6.154;2023-09-08T08:52:04;7.78;;;5.05;;
47021;SDS011;32779;52.264;6.154;2023-09-08T08:54:36;6.20;;;5.05;;
47021;SDS011;32779;52.264;6.154;2023-09-08T08:57:04;5.75;;;5.20;;
47021;SDS011;32779;52.264;6.154;2023-09-08T08:59:30;10.40;;;5.60;;
47021;SDS011;32779;52.264;6.154;2023-09-08T09:01:56;10.32;;;4.72;;
47021;SDS011;32779;52.264;6.154;2023-09-08T09:04:23;10.00;;;6.30;;
47021;SDS011;32779;52.264;6.154;2023-09-08T09:06:50;8.95;;;5.85;;
47021;SDS011;32779;52.264;6.154;2023-09-08T09:09:17;8.20;;;5.28;;
47021;SDS011;32779;52.264;6.154;2023-09-08T09:11:43;8.05;;;5.43;;
47021;SDS011;32779;52.264;6.154;2023-09-08T09:14:09;9.30;;;5.70;;
47021;SDS011;32779;52.264;6.154;2023-09-08T09:16:41;7.90;;;5.65;;
47021;SDS011;32779;52.264;6.154;2023-09-08T09:19:07;7.03;;;5.80;;
47021;SDS011;32779;52.264;6.154;2023-09-08T09:21:43;9.23;;;6.10;;
47021;SDS011;32779;52.264;6.154;2023-09-08T09:27:14;10.90;;;5.47;;
47021;SDS011;32779;52.264;6.154;2023-09-08T09:29:46;8.20;;;5.78;;
47021;SDS011;32779;52.264;6.154;2023-09-08T09:32:13;11.23;;;6.00;;
47021;SDS011;32779;52.264;6.154;2023-09-08T09:34:49;9.23;;;6.20;;
47021;SDS011;32779;52.264;6.154;2023-09-08T09:37:19;9.13;;;5.80;;
47021;SDS011;32779;52.264;6.154;2023-09-08T09:39:48;7.28;;;5.45;;
47021;SDS011;32779;52.264;6.154;2023-09-08T09:42:15;9.05;;;5.45;;
47021;SDS011;32779;52.264;6.154;2023-09-08T09:44:40;7.13;;;5.88;;
47021;SDS011;32779;52.264;6.154;2023-09-08T09:47:06;7.60;;;5.75;;
47021;SDS011;32779;52.264;6.154;2023-09-08T09:49:40;9.30;;;5.72;;
47021;SDS011;32779;52.264;6.154;2023-09-08T09:52:11;7.50;;;5.65;;
47021;SDS011;32779;52.264;6.154;2023-09-08T09:54:41;15.30;;;5.80;;
47021;SDS011;32779;52.264;6.154;2023-09-08T09:57:08;8.65;;;5.57;;
47021;SDS011;32779;52.264;6.154;2023-09-08T09:59:37;8.40;;;5.90;;
47021;SDS011;32779;52.264;6.154;2023-09-08T10:02:16;5.82;;;5.22;;
47021;SDS011;32779;52.264;6.154;2023-09-08T10:04:45;7.97;;;6.13;;
47021;SDS011;32779;52.264;6.154;2023-09-08T10:07:15;11.07;;;6.30;;
47021;SDS011;32779;52.264;6.154;2023-09-08T10:09:41;10.98;;;5.65;;
47021;SDS011;32779;52.264;6.154;2023-09-08T10:12:07;9.48;;;5.95;;
47021;SDS011;32779;52.264;6.154;2023-09-08T10:14:37;9.23;;;5.30;;
47021;SDS011;32779;52.264;6.154;2023-09-08T10:17:07;9.30;;;5.70;;
47021;SDS011;32779;52.264;6.154;2023-09-08T10:19:36;7.00;;;5.55;;
47021;SDS011;32779;52.264;6.154;2023-09-08T10:22:06;6.18;;;4.88;;
47021;SDS011;32779;52.264;6.154;2023-09-08T10:24:37;10.35;;;4.95;;
47021;SDS011;32779;52.264;6.154;2023-09-08T10:27:07;7.18;;;5.22;;
47021;SDS011;32779;52.264;6.154;2023-09-08T10:29:35;5.93;;;5.00;;
47021;SDS011;32779;52.264;6.154;2023-09-08T10:32:01;8.70;;;5.38;;
47021;SDS011;32779;52.264;6.154;2023-09-08T10:34:27;9.25;;;4.65;;
47021;SDS011;32779;52.264;6.154;2023-09-08T10:36:54;10.43;;;5.00;;
47021;SDS011;32779;52.264;6.154;2023-09-08T10:39:33;5.78;;;4.82;;
47021;SDS011;32779;52.264;6.154;2023-09-08T10:47:19;4.95;;;4.30;;
47021;SDS011;32779;52.264;6.154;2023-09-08T10:49:50;5.33;;;3.90;;
47021;SDS011;32779;52.264;6.154;2023-09-08T10:52:20;7.32;;;4.47;;
47021;SDS011;32779;52.264;6.154;2023-09-08T10:54:48;5.43;;;4.10;;
47021;SDS011;32779;52.264;6.154;2023-09-08T10:57:18;8.18;;;4.40;;
47021;SDS011;32779;52.264;6.154;2023-09-08T10:59:52;9.55;;;4.80;;
47021;SDS011;32779;52.264;6.154;2023-09-08T11:05:13;5.10;;;4.07;;
47021;SDS011;32779;52.264;6.154;2023-09-08T11:07:41;9.57;;;4.50;;
47021;SDS011;32779;52.264;6.154;2023-09-08T11:10:08;5.22;;;4.00;;
47021;SDS011;32779;52.264;6.154;2023-09-08T11:12:34;6.30;;;3.85;;
47021;SDS011;32779;52.264;6.154;2023-09-08T11:15:01;11.43;;;4.00;;
47021;SDS011;32779;52.264;6.154;2023-09-08T11:17:30;6.07;;;4.00;;
47021;SDS011;32779;52.264;6.154;2023-09-08T11:19:56;6.47;;;4.38;;
47021;SDS011;32779;52.264;6.154;2023-09-08T11:22:23;9.25;;;4.22;;
47021;SDS011;32779;52.264;6.154;2023-09-08T11:24:55;7.65;;;4.35;;
47021;SDS011;32779;52.264;6.154;2023-09-08T11:27:25;7.15;;;3.83;;
47021;SDS011;32779;52.264;6.154;2023-09-08T11:29:52;5.97;;;3.70;;
47021;SDS011;32779;52.264;6.154;2023-09-08T11:32:18;6.43;;;3.80;;
47021;SDS011;32779;52.264;6.154;2023-09-08T11:34:44;8.48;;;3.95;;
47021;SDS011;32779;52.264;6.154;2023-09-08T11:39:38;4.07;;;3.53;;
47021;SDS011;32779;52.264;6.154;2023-09-08T11:42:04;5.72;;;3.80;;
47021;SDS011;32779;52.264;6.154;2023-09-08T11:44:31;6.97;;;4.28;;
47021;SDS011;32779;52.264;6.154;2023-09-08T11:46:57;6.40;;;4.38;;
47021;SDS011;32779;52.264;6.154;2023-09-08T11:49:24;9.32;;;4.18;;
47021;SDS011;32779;52.264;6.154;2023-09-08T11:51:50;6.28;;;3.70;;
47021;SDS011;32779;52.264;6.154;2023-09-08T11:54:16;6.95;;;3.72;;
47021;SDS011;32779;52.264;6.154;2023-09-08T11:56:42;7.32;;;3.92;;
47021;SDS011;32779;52.264;6.154;2023-09-08T11:59:08;5.65;;;3.70;;
47021;SDS011;32779;52.264;6.154;2023-09-08T12:01:34;6.75;;;3.78;;
47021;SDS011;32779;52.264;6.154;2023-09-08T12:04:00;8.80;;;3.70;;
47021;SDS011;32779;52.264;6.154;2023-09-08T12:06:26;6.15;;;3.65;;
47021;SDS011;32779;52.264;6.154;2023-09-08T12:08:53;5.45;;;3.63;;
47021;SDS011;32779;52.264;6.154;2023-09-08T12:11:20;5.13;;;4.15;;
47021;SDS011;32779;52.264;6.154;2023-09-08T12:13:46;5.50;;;3.78;;
47021;SDS011;32779;52.264;6.154;2023-09-08T12:16:18;5.70;;;3.75;;
47021;SDS011;32779;52.264;6.154;2023-09-08T12:18:45;6.30;;;3.58;;
47021;SDS011;32779;52.264;6.154;2023-09-08T12:21:10;5.70;;;3.83;;
47021;SDS011;32779;52.264;6.154;2023-09-08T12:23:49;6.47;;;3.80;;
47021;SDS011;32779;52.264;6.154;2023-09-08T12:26:16;8.02;;;3.70;;
47021;SDS011;32779;52.264;6.154;2023-09-08T12:28:42;3.85;;;3.45;;
47021;SDS011;32779;52.264;6.154;2023-09-08T12:31:08;8.30;;;3.65;;
47021;SDS011;32779;52.264;6.154;2023-09-08T12:33:37;10.50;;;3.97;;
47021;SDS011;32779;52.264;6.154;2023-09-08T12:36:13;4.15;;;3.67;;
47021;SDS011;32779;52.264;6.154;2023-09-08T12:38:40;5.70;;;3.72;;
47021;SDS011;32779;52.264;6.154;2023-09-08T12:41:06;7.78;;;3.90;;
47021;SDS011;32779;52.264;6.154;2023-09-08T12:43:31;5.80;;;3.80;;
47021;SDS011;32779;52.264;6.154;2023-09-08T12:45:57;4.70;;;3.60;;
47021;SDS011;32779;52.264;6.154;2023-09-08T12:48:23;5.93;;;3.50;;
47021;SDS011;32779;52.264;6.154;2023-09-08T12:50:49;3.63;;;3.33;;
47021;SDS011;32779;52.264;6.154;2023-09-08T12:53:15;4.95;;;3.80;;
47021;SDS011;32779;52.264;6.154;2023-09-08T12:55:45;6.05;;;3.65;;
47021;SDS011;32779;52.264;6.154;2023-09-08T12:58:11;4.95;;;3.47;;
47021;SDS011;32779;52.264;6.154;2023-09-08T13:00:36;5.00;;;3.30;;
47021;SDS011;32779;52.264;6.154;2023-09-08T13:03:02;5.68;;;3.47;;
47021;SDS011;32779;52.264;6.154;2023-09-08T13:05:30;6.78;;;3.50;;
47021;SDS011;32779;52.264;6.154;2023-09-08T13:07:56;6.13;;;3.70;;
47021;SDS011;32779;52.264;6.154;2023-09-08T13:10:21;6.35;;;3.47;;
47021;SDS011;32779;52.264;6.154;2023-09-08T13:12:47;5.75;;;3.20;;
47021;SDS011;32779;52.264;6.154;2023-09-08T13:15:13;5.43;;;3.28;;
47021;SDS011;32779;52.264;6.154;2023-09-08T13:17:39;5.28;;;3.13;;
47021;SDS011;32779;52.264;6.154;2023-09-08T13:20:05;5.80;;;3.40;;
47021;SDS011;32779;52.264;6.154;2023-09-08T13:22:32;6.05;;;3.38;;
47021;SDS011;32779;52.264;6.154;2023-09-08T13:24:57;6.13;;;2.83;;
47021;SDS011;32779;52.264;6.154;2023-09-08T13:27:23;6.53;;;3.55;;
47021;SDS011;32779;52.264;6.154;2023-09-08T13:29:49;9.40;;;3.47;;
47021;SDS011;32779;52.264;6.154;2023-09-08T13:32:14;5.95;;;3.28;;
47021;SDS011;32779;52.264;6.154;2023-09-08T13:34:40;3.88;;;3.40;;
47021;SDS011;32779;52.264;6.154;2023-09-08T13:37:08;7.32;;;3.13;;
47021;SDS011;32779;52.264;6.154;2023-09-08T13:39:34;7.25;;;3.20;;
47021;SDS011;32779;52.264;6.154;2023-09-08T13:42:00;6.30;;;3.70;;
47021;SDS011;32779;52.264;6.154;2023-09-08T13:44:27;7.30;;;3.83;;
47021;SDS011;32779;52.264;6.154;2023-09-08T13:46:53;8.50;;;3.70;;
47021;SDS011;32779;52.264;6.154;2023-09-08T13:49:19;7.70;;;3.88;;
47021;SDS011;32779;52.264;6.154;2023-09-08T13:51:45;5.63;;;3.50;;
47021;SDS011;32779;52.264;6.154;2023-09-08T13:54:12;5.22;;;3.20;;
47021;SDS011;32779;52.264;6.154;2023-09-08T13:56:38;6.60;;;3.25;;
47021;SDS011;32779;52.264;6.154;2023-09-08T13:59:05;5.68;;;3.38;;
47021;SDS011;32779;52.264;6.154;2023-09-08T14:01:35;5.25;;;3.55;;
47021;SDS011;32779;52.264;6.154;2023-09-08T14:04:02;7.80;;;3.60;;
47021;SDS011;32779;52.264;6.154;2023-09-08T14:06:30;3.65;;;3.10;;
47021;SDS011;32779;52.264;6.154;2023-09-08T14:08:55;9.60;;;3.78;;
47021;SDS011;32779;52.264;6.154;2023-09-08T14:11:22;3.70;;;3.20;;
47021;SDS011;32779;52.264;6.154;2023-09-08T14:13:48;5.75;;;3.53;;
47021;SDS011;32779;52.264;6.154;2023-09-08T14:16:13;4.97;;;3.53;;
47021;SDS011;32779;52.264;6.154;2023-09-08T14:18:39;6.72;;;3.45;;
47021;SDS011;32779;52.264;6.154;2023-09-08T14:21:06;6.82;;;3.55;;
47021;SDS011;32779;52.264;6.154;2023-09-08T14:23:32;4.50;;;3.08;;
47021;SDS011;32779;52.264;6.154;2023-09-08T14:26:06;5.30;;;3.38;;
47021;SDS011;32779;52.264;6.154;2023-09-08T14:28:33;6.53;;;3.92;;
47021;SDS011;32779;52.264;6.154;2023-09-08T14:30:58;6.15;;;3.90;;
47021;SDS011;32779;52.264;6.154;2023-09-08T14:33:25;10.20;;;3.53;;
47021;SDS011;32779;52.264;6.154;2023-09-08T14:35:50;5.05;;;3.45;;
47021;SDS011;32779;52.264;6.154;2023-09-08T14:38:20;5.75;;;3.53;;
47021;SDS011;32779;52.264;6.154;2023-09-08T14:40:53;7.53;;;3.80;;
47021;SDS011;32779;52.264;6.154;2023-09-08T14:43:26;4.43;;;3.50;;
47021;SDS011;32779;52.264;6.154;2023-09-08T14:45:53;5.82;;;3.60;;
47021;SDS011;32779;52.264;6.154;2023-09-08T14:48:19;5.45;;;3.50;;
47021;SDS011;32779;52.264;6.154;2023-09-08T14:50:45;11.10;;;3.78;;
47021;SDS011;32779;52.264;6.154;2023-09-08T14:53:11;7.90;;;3.58;;
47021;SDS011;32779;52.264;6.154;2023-09-08T14:55:37;7.00;;;3.63;;
47021;SDS011;32779;52.264;6.154;2023-09-08T14:58:03;7.45;;;3.92;;
47021;SDS011;32779;52.264;6.154;2023-09-08T15:00:28;5.65;;;3.70;;
47021;SDS011;32779;52.264;6.154;2023-09-08T15:02:54;8.23;;;4.15;;
47021;SDS011;32779;52.264;6.154;2023-09-08T15:05:20;5.65;;;3.72;;
47021;SDS011;32779;52.264;6.154;2023-09-08T15:07:45;5.45;;;3.55;;
47021;SDS011;32779;52.264;6.154;2023-09-08T15:10:11;5.88;;;3.53;;
47021;SDS011;32779;52.264;6.154;2023-09-08T15:12:39;5.25;;;3.65;;
47021;SDS011;32779;52.264;6.154;2023-09-08T15:15:05;4.18;;;3.40;;
47021;SDS011;32779;52.264;6.154;2023-09-08T15:17:32;6.53;;;3.30;;
47021;SDS011;32779;52.264;6.154;2023-09-08T15:19:57;8.77;;;3.75;;
47021;SDS011;32779;52.264;6.154;2023-09-08T15:22:24;7.28;;;4.25;;
47021;SDS011;32779;52.264;6.154;2023-09-08T15:24:50;6.28;;;4.20;;
47021;SDS011;32779;52.264;6.154;2023-09-08T15:27:16;7.75;;;3.60;;
47021;SDS011;32779;52.264;6.154;2023-09-08T15:29:42;5.43;;;3.85;;
47021;SDS011;32779;52.264;6.154;2023-09-08T15:32:07;5.47;;;3.58;;
47021;SDS011;32779;52.264;6.154;2023-09-08T15:34:33;6.32;;;3.40;;
47021;SDS011;32779;52.264;6.154;2023-09-08T15:36:59;8.55;;;4.05;;
47021;SDS011;32779;52.264;6.154;2023-09-08T15:39:25;5.07;;;3.78;;
47021;SDS011;32779;52.264;6.154;2023-09-08T15:41:51;8.50;;;3.88;;
47021;SDS011;32779;52.264;6.154;2023-09-08T15:44:16;5.82;;;4.20;;
47021;SDS011;32779;52.264;6.154;2023-09-08T15:46:42;6.68;;;3.63;;
47021;SDS011;32779;52.264;6.154;2023-09-08T15:49:07;9.18;;;3.90;;
47021;SDS011;32779;52.264;6.154;2023-09-08T15:51:33;8.75;;;3.53;;
47021;SDS011;32779;52.264;6.154;2023-09-08T15:53:59;9.75;;;4.78;;
47021;SDS011;32779;52.264;6.154;2023-09-08T15:56:24;6.95;;;3.95;;
47021;SDS011;32779;52.264;6.154;2023-09-08T15:58:50;4.68;;;3.70;;
47021;SDS011;32779;52.264;6.154;2023-09-08T16:01:16;5.38;;;3.50;;
47021;SDS011;32779;52.264;6.154;2023-09-08T16:03:41;5.50;;;3.63;;
47021;SDS011;32779;52.264;6.154;2023-09-08T16:06:07;5.25;;;3.78;;
47021;SDS011;32779;52.264;6.154;2023-09-08T16:08:33;10.48;;;3.78;;
47021;SDS011;32779;52.264;6.154;2023-09-08T16:11:01;4.57;;;3.47;;
47021;SDS011;32779;52.264;6.154;2023-09-08T16:13:27;8.77;;;4.10;;
47021;SDS011;32779;52.264;6.154;2023-09-08T16:15:55;3.92;;;3.40;;
47021;SDS011;32779;52.264;6.154;2023-09-08T16:18:20;6.85;;;5.10;;
47021;SDS011;32779;52.264;6.154;2023-09-08T16:20:46;7.38;;;5.40;;
47021;SDS011;32779;52.264;6.154;2023-09-08T16:23:12;8.77;;;5.50;;
47021;SDS011;32779;52.264;6.154;2023-09-08T16:25:38;4.18;;;3.70;;
47021;SDS011;32779;52.264;6.154;2023-09-08T16:28:04;6.50;;;4.68;;
47021;SDS011;32779;52.264;6.154;2023-09-08T16:30:30;8.73;;;4.35;;
47021;SDS011;32779;52.264;6.154;2023-09-08T16:32:55;5.80;;;3.53;;